sensor_id;sensor_type;location;lat;lon;timestamp;P1;durP1;ratioP1;P2;durP2;ratioP2
53801;SDS011;39709;53.334;6.534;2023-05-31T00:00:04;8.23;;;1.90;;
53801;SDS011;39709;53.334;6.534;2023-05-31T00:02:31;7.38;;;1.67;;
53801;SDS011;39709;53.334;6.534;2023-05-31T00:04:56;7.30;;;2.05;;
53801;SDS011;39709;53.334;6.534;2023-05-31T00:07:22;6.50;;;2.03;;
53801;SDS011;39709;53.334;6.534;2023-05-31T00:09:48;5.83;;;1.80;;
53801;SDS011;39709;53.334;6.534;2023-05-31T00:12:13;7.15;;;2.20;;
53801;SDS011;39709;53.334;6.534;2023-05-31T00:14:39;6.80;;;2.00;;
53801;SDS011;39709;53.334;6.534;2023-05-31T00:17:05;6.13;;;2.10;;
53801;SDS011;39709;53.334;6.534;2023-05-31T00:19:31;7.40;;;1.90;;
53801;SDS011;39709;53.334;6.534;2023-05-31T00:21:56;7.25;;;2.20;;
53801;SDS011;39709;53.334;6.534;2023-05-31T00:24:22;6.90;;;2.10;;
53801;SDS011;39709;53.334;6.534;2023-05-31T00:26:47;6.43;;;1.67;;
53801;SDS011;39709;53.334;6.534;2023-05-31T00:29:13;6.43;;;1.70;;
53801;SDS011;39709;53.334;6.534;2023-05-31T00:31:40;9.52;;;2.60;;
53801;SDS011;39709;53.334;6.534;2023-05-31T00:34:06;11.27;;;2.60;;
53801;SDS011;39709;53.334;6.534;2023-05-31T00:36:32;8.03;;;2.43;;
53801;SDS011;39709;53.334;6.534;2023-05-31T00:38:58;9.47;;;2.30;;
53801;SDS011;39709;53.334;6.534;2023-05-31T00:41:24;8.20;;;1.90;;
53801;SDS011;39709;53.334;6.534;2023-05-31T00:43:50;10.15;;;2.20;;
53801;SDS011;39709;53.334;6.534;2023-05-31T00:46:21;9.77;;;2.70;;
53801;SDS011;39709;53.334;6.534;2023-05-31T00:48:51;6.95;;;2.10;;
53801;SDS011;39709;53.334;6.534;2023-05-31T00:51:17;7.95;;;2.00;;
53801;SDS011;39709;53.334;6.534;2023-05-31T00:53:43;7.43;;;2.17;;
53801;SDS011;39709;53.334;6.534;2023-05-31T00:56:09;6.70;;;1.77;;
53801;SDS011;39709;53.334;6.534;2023-05-31T00:58:35;7.15;;;2.00;;
53801;SDS011;39709;53.334;6.534;2023-05-31T01:01:02;7.53;;;2.40;;
53801;SDS011;39709;53.334;6.534;2023-05-31T01:03:27;9.13;;;2.95;;
53801;SDS011;39709;53.334;6.534;2023-05-31T01:05:53;8.10;;;2.37;;
53801;SDS011;39709;53.334;6.534;2023-05-31T01:08:20;10.65;;;2.40;;
53801;SDS011;39709;53.334;6.534;2023-05-31T01:10:46;11.20;;;2.28;;
53801;SDS011;39709;53.334;6.534;2023-05-31T01:13:17;13.40;;;3.60;;
53801;SDS011;39709;53.334;6.534;2023-05-31T01:16:47;10.70;;;3.30;;
53801;SDS011;39709;53.334;6.534;2023-05-31T01:18:59;10.60;;;2.60;;
53801;SDS011;39709;53.334;6.534;2023-05-31T01:21:32;15.38;;;2.80;;
53801;SDS011;39709;53.334;6.534;2023-05-31T01:24:39;12.00;;;3.10;;
53801;SDS011;39709;53.334;6.534;2023-05-31T01:27:16;13.02;;;2.95;;
53801;SDS011;39709;53.334;6.534;2023-05-31T01:29:42;12.37;;;3.03;;
53801;SDS011;39709;53.334;6.534;2023-05-31T01:32:09;12.67;;;3.00;;
53801;SDS011;39709;53.334;6.534;2023-05-31T01:34:38;8.90;;;3.08;;
53801;SDS011;39709;53.334;6.534;2023-05-31T01:37:04;10.82;;;3.08;;
53801;SDS011;39709;53.334;6.534;2023-05-31T01:39:30;8.43;;;2.63;;
53801;SDS011;39709;53.334;6.534;2023-05-31T01:41:56;10.60;;;3.55;;
53801;SDS011;39709;53.334;6.534;2023-05-31T01:44:22;12.88;;;3.50;;
53801;SDS011;39709;53.334;6.534;2023-05-31T01:46:48;11.75;;;2.80;;
53801;SDS011;39709;53.334;6.534;2023-05-31T01:49:14;10.07;;;3.17;;
53801;SDS011;39709;53.334;6.534;2023-05-31T01:51:40;9.73;;;2.85;;
53801;SDS011;39709;53.334;6.534;2023-05-31T01:54:08;11.85;;;3.08;;
53801;SDS011;39709;53.334;6.534;2023-05-31T01:56:34;9.93;;;3.20;;
53801;SDS011;39709;53.334;6.534;2023-05-31T01:59:02;10.30;;;3.33;;
53801;SDS011;39709;53.334;6.534;2023-05-31T02:01:31;10.50;;;3.25;;
53801;SDS011;39709;53.334;6.534;2023-05-31T02:03:57;10.45;;;3.17;;
53801;SDS011;39709;53.334;6.534;2023-05-31T02:06:23;11.33;;;2.90;;
53801;SDS011;39709;53.334;6.534;2023-05-31T02:08:52;10.38;;;2.88;;
53801;SDS011;39709;53.334;6.534;2023-05-31T02:11:18;11.15;;;3.00;;
53801;SDS011;39709;53.334;6.534;2023-05-31T02:13:44;16.03;;;3.60;;
53801;SDS011;39709;53.334;6.534;2023-05-31T02:16:10;13.40;;;3.53;;
53801;SDS011;39709;53.334;6.534;2023-05-31T02:18:35;12.20;;;3.20;;
53801;SDS011;39709;53.334;6.534;2023-05-31T02:21:02;11.32;;;3.20;;
53801;SDS011;39709;53.334;6.534;2023-05-31T02:23:28;13.68;;;3.55;;
53801;SDS011;39709;53.334;6.534;2023-05-31T02:25:53;12.00;;;3.40;;
53801;SDS011;39709;53.334;6.534;2023-05-31T02:28:20;12.20;;;3.70;;
53801;SDS011;39709;53.334;6.534;2023-05-31T02:30:52;11.52;;;3.40;;
53801;SDS011;39709;53.334;6.534;2023-05-31T02:33:19;11.80;;;3.45;;
53801;SDS011;39709;53.334;6.534;2023-05-31T02:35:45;10.03;;;3.40;;
53801;SDS011;39709;53.334;6.534;2023-05-31T02:38:11;15.27;;;4.18;;
53801;SDS011;39709;53.334;6.534;2023-05-31T02:40:37;12.07;;;3.63;;
53801;SDS011;39709;53.334;6.534;2023-05-31T02:43:02;12.70;;;4.03;;
53801;SDS011;39709;53.334;6.534;2023-05-31T02:45:28;10.87;;;3.40;;
53801;SDS011;39709;53.334;6.534;2023-05-31T02:47:53;13.10;;;3.63;;
53801;SDS011;39709;53.334;6.534;2023-05-31T02:50:20;11.27;;;3.55;;
53801;SDS011;39709;53.334;6.534;2023-05-31T02:52:45;12.43;;;3.72;;
53801;SDS011;39709;53.334;6.534;2023-05-31T02:55:11;16.47;;;3.60;;
53801;SDS011;39709;53.334;6.534;2023-05-31T02:57:37;11.45;;;3.75;;
53801;SDS011;39709;53.334;6.534;2023-05-31T03:00:03;12.20;;;3.47;;
53801;SDS011;39709;53.334;6.534;2023-05-31T03:02:35;10.05;;;4.13;;
53801;SDS011;39709;53.334;6.534;2023-05-31T03:05:02;11.63;;;3.72;;
53801;SDS011;39709;53.334;6.534;2023-05-31T03:07:29;15.38;;;3.80;;
53801;SDS011;39709;53.334;6.534;2023-05-31T03:09:55;10.67;;;3.30;;
53801;SDS011;39709;53.334;6.534;2023-05-31T03:12:20;16.00;;;4.43;;
53801;SDS011;39709;53.334;6.534;2023-05-31T03:14:46;11.85;;;4.30;;
53801;SDS011;39709;53.334;6.534;2023-05-31T03:17:12;10.97;;;3.20;;
53801;SDS011;39709;53.334;6.534;2023-05-31T03:19:37;13.25;;;3.50;;
53801;SDS011;39709;53.334;6.534;2023-05-31T03:22:03;14.27;;;3.73;;
53801;SDS011;39709;53.334;6.534;2023-05-31T03:24:29;14.63;;;3.63;;
53801;SDS011;39709;53.334;6.534;2023-05-31T03:26:55;17.33;;;4.00;;
53801;SDS011;39709;53.334;6.534;2023-05-31T03:29:21;10.65;;;3.58;;
53801;SDS011;39709;53.334;6.534;2023-05-31T03:31:46;12.93;;;3.30;;
53801;SDS011;39709;53.334;6.534;2023-05-31T03:34:12;12.60;;;3.10;;
53801;SDS011;39709;53.334;6.534;2023-05-31T03:36:38;12.23;;;3.83;;
53801;SDS011;39709;53.334;6.534;2023-05-31T03:39:03;13.52;;;3.63;;
53801;SDS011;39709;53.334;6.534;2023-05-31T03:41:29;12.67;;;3.47;;
53801;SDS011;39709;53.334;6.534;2023-05-31T03:43:55;11.38;;;3.10;;
53801;SDS011;39709;53.334;6.534;2023-05-31T03:46:20;11.80;;;3.30;;
53801;SDS011;39709;53.334;6.534;2023-05-31T03:48:46;12.85;;;3.83;;
53801;SDS011;39709;53.334;6.534;2023-05-31T03:51:12;16.77;;;3.63;;
53801;SDS011;39709;53.334;6.534;2023-05-31T03:53:38;16.23;;;4.07;;
53801;SDS011;39709;53.334;6.534;2023-05-31T03:56:03;16.73;;;3.97;;
53801;SDS011;39709;53.334;6.534;2023-05-31T03:58:29;17.27;;;4.05;;
53801;SDS011;39709;53.334;6.534;2023-05-31T04:00:55;12.57;;;3.97;;
53801;SDS011;39709;53.334;6.534;2023-05-31T04:03:21;11.77;;;3.80;;
53801;SDS011;39709;53.334;6.534;2023-05-31T04:05:47;14.15;;;3.60;;
53801;SDS011;39709;53.334;6.534;2023-05-31T04:08:12;13.97;;;3.60;;
53801;SDS011;39709;53.334;6.534;2023-05-31T04:10:38;11.40;;;3.33;;
53801;SDS011;39709;53.334;6.534;2023-05-31T04:13:05;10.07;;;3.73;;
53801;SDS011;39709;53.334;6.534;2023-05-31T04:15:31;14.70;;;3.60;;
53801;SDS011;39709;53.334;6.534;2023-05-31T04:17:56;9.63;;;3.20;;
53801;SDS011;39709;53.334;6.534;2023-05-31T04:20:22;12.63;;;3.58;;
53801;SDS011;39709;53.334;6.534;2023-05-31T04:22:48;13.95;;;3.38;;
53801;SDS011;39709;53.334;6.534;2023-05-31T04:25:14;14.50;;;3.73;;
53801;SDS011;39709;53.334;6.534;2023-05-31T04:27:42;15.75;;;3.42;;
53801;SDS011;39709;53.334;6.534;2023-05-31T04:30:08;14.05;;;3.45;;
53801;SDS011;39709;53.334;6.534;2023-05-31T04:32:34;15.57;;;3.70;;
53801;SDS011;39709;53.334;6.534;2023-05-31T04:35:00;11.73;;;3.33;;
53801;SDS011;39709;53.334;6.534;2023-05-31T04:37:28;11.63;;;3.45;;
53801;SDS011;39709;53.334;6.534;2023-05-31T04:39:55;11.98;;;3.55;;
53801;SDS011;39709;53.334;6.534;2023-05-31T04:42:25;14.87;;;3.30;;
53801;SDS011;39709;53.334;6.534;2023-05-31T04:44:54;14.45;;;4.10;;
53801;SDS011;39709;53.334;6.534;2023-05-31T04:47:26;12.57;;;3.42;;
53801;SDS011;39709;53.334;6.534;2023-05-31T04:49:54;12.73;;;3.75;;
53801;SDS011;39709;53.334;6.534;2023-05-31T04:52:23;17.75;;;3.78;;
53801;SDS011;39709;53.334;6.534;2023-05-31T04:54:53;15.63;;;4.07;;
53801;SDS011;39709;53.334;6.534;2023-05-31T04:57:19;15.63;;;4.30;;
53801;SDS011;39709;53.334;6.534;2023-05-31T04:59:44;14.77;;;4.22;;
53801;SDS011;39709;53.334;6.534;2023-05-31T05:02:10;15.77;;;4.60;;
53801;SDS011;39709;53.334;6.534;2023-05-31T05:04:36;14.43;;;4.47;;
53801;SDS011;39709;53.334;6.534;2023-05-31T05:07:01;11.33;;;3.73;;
53801;SDS011;39709;53.334;6.534;2023-05-31T05:09:27;18.15;;;4.47;;
53801;SDS011;39709;53.334;6.534;2023-05-31T05:11:53;14.37;;;3.93;;
53801;SDS011;39709;53.334;6.534;2023-05-31T05:14:19;12.68;;;4.10;;
53801;SDS011;39709;53.334;6.534;2023-05-31T05:16:45;15.65;;;3.75;;
53801;SDS011;39709;53.334;6.534;2023-05-31T05:19:11;11.00;;;4.10;;
53801;SDS011;39709;53.334;6.534;2023-05-31T05:21:36;14.18;;;4.25;;
53801;SDS011;39709;53.334;6.534;2023-05-31T05:24:02;19.27;;;4.30;;
53801;SDS011;39709;53.334;6.534;2023-05-31T05:26:28;13.55;;;4.10;;
53801;SDS011;39709;53.334;6.534;2023-05-31T05:28:53;15.67;;;3.80;;
53801;SDS011;39709;53.334;6.534;2023-05-31T05:31:19;11.77;;;2.78;;
53801;SDS011;39709;53.334;6.534;2023-05-31T05:33:45;13.57;;;2.97;;
53801;SDS011;39709;53.334;6.534;2023-05-31T05:36:11;11.43;;;2.20;;
53801;SDS011;39709;53.334;6.534;2023-05-31T05:38:37;11.07;;;2.20;;
53801;SDS011;39709;53.334;6.534;2023-05-31T05:41:03;12.10;;;2.20;;
53801;SDS011;39709;53.334;6.534;2023-05-31T05:43:28;13.52;;;2.10;;
53801;SDS011;39709;53.334;6.534;2023-05-31T05:45:55;8.18;;;2.13;;
53801;SDS011;39709;53.334;6.534;2023-05-31T05:48:21;8.90;;;1.70;;
53801;SDS011;39709;53.334;6.534;2023-05-31T05:50:47;10.82;;;1.67;;
53801;SDS011;39709;53.334;6.534;2023-05-31T05:53:13;8.53;;;1.67;;
53801;SDS011;39709;53.334;6.534;2023-05-31T05:55:38;7.10;;;1.40;;
53801;SDS011;39709;53.334;6.534;2023-05-31T05:58:04;4.70;;;1.10;;
53801;SDS011;39709;53.334;6.534;2023-05-31T06:00:30;5.10;;;1.30;;
53801;SDS011;39709;53.334;6.534;2023-05-31T06:02:56;7.32;;;1.30;;
53801;SDS011;39709;53.334;6.534;2023-05-31T06:05:21;8.00;;;1.33;;
53801;SDS011;39709;53.334;6.534;2023-05-31T06:07:51;5.28;;;1.20;;
53801;SDS011;39709;53.334;6.534;2023-05-31T06:10:17;5.88;;;1.10;;
53801;SDS011;39709;53.334;6.534;2023-05-31T06:12:43;7.30;;;1.20;;
53801;SDS011;39709;53.334;6.534;2023-05-31T06:15:08;7.82;;;1.27;;
53801;SDS011;39709;53.334;6.534;2023-05-31T06:17:34;5.00;;;0.90;;
53801;SDS011;39709;53.334;6.534;2023-05-31T06:20:00;8.75;;;1.33;;
53801;SDS011;39709;53.334;6.534;2023-05-31T06:22:30;6.03;;;1.35;;
53801;SDS011;39709;53.334;6.534;2023-05-31T06:24:57;6.03;;;1.23;;
53801;SDS011;39709;53.334;6.534;2023-05-31T06:27:23;7.88;;;1.10;;
53801;SDS011;39709;53.334;6.534;2023-05-31T06:29:48;7.57;;;1.35;;
53801;SDS011;39709;53.334;6.534;2023-05-31T06:32:20;3.90;;;1.10;;
53801;SDS011;39709;53.334;6.534;2023-05-31T06:34:46;5.07;;;0.90;;
53801;SDS011;39709;53.334;6.534;2023-05-31T06:37:11;6.95;;;1.00;;
53801;SDS011;39709;53.334;6.534;2023-05-31T06:39:39;4.97;;;1.10;;
53801;SDS011;39709;53.334;6.534;2023-05-31T06:42:05;6.53;;;1.00;;
53801;SDS011;39709;53.334;6.534;2023-05-31T06:44:31;4.30;;;1.10;;
53801;SDS011;39709;53.334;6.534;2023-05-31T06:46:57;3.85;;;0.80;;
53801;SDS011;39709;53.334;6.534;2023-05-31T06:49:23;6.40;;;1.30;;
53801;SDS011;39709;53.334;6.534;2023-05-31T06:51:48;4.68;;;1.05;;
53801;SDS011;39709;53.334;6.534;2023-05-31T06:54:14;8.60;;;1.37;;
53801;SDS011;39709;53.334;6.534;2023-05-31T06:56:40;6.35;;;1.13;;
53801;SDS011;39709;53.334;6.534;2023-05-31T06:59:06;9.57;;;1.60;;
53801;SDS011;39709;53.334;6.534;2023-05-31T07:01:31;4.70;;;1.27;;
53801;SDS011;39709;53.334;6.534;2023-05-31T07:03:57;4.80;;;1.20;;
53801;SDS011;39709;53.334;6.534;2023-05-31T07:06:23;5.13;;;1.33;;
53801;SDS011;39709;53.334;6.534;2023-05-31T07:08:50;5.28;;;1.10;;
53801;SDS011;39709;53.334;6.534;2023-05-31T07:11:17;4.00;;;0.65;;
53801;SDS011;39709;53.334;6.534;2023-05-31T07:13:42;6.67;;;1.30;;
53801;SDS011;39709;53.334;6.534;2023-05-31T07:16:08;5.78;;;1.38;;
53801;SDS011;39709;53.334;6.534;2023-05-31T07:18:34;7.13;;;1.60;;
53801;SDS011;39709;53.334;6.534;2023-05-31T07:20:59;4.80;;;0.70;;
53801;SDS011;39709;53.334;6.534;2023-05-31T07:23:25;4.90;;;1.10;;
53801;SDS011;39709;53.334;6.534;2023-05-31T07:25:51;2.77;;;0.60;;
53801;SDS011;39709;53.334;6.534;2023-05-31T07:28:17;4.38;;;0.40;;
53801;SDS011;39709;53.334;6.534;2023-05-31T07:30:42;5.43;;;1.10;;
53801;SDS011;39709;53.334;6.534;2023-05-31T07:33:08;5.97;;;1.20;;
53801;SDS011;39709;53.334;6.534;2023-05-31T07:35:34;6.23;;;1.07;;
53801;SDS011;39709;53.334;6.534;2023-05-31T07:37:59;6.55;;;0.90;;
53801;SDS011;39709;53.334;6.534;2023-05-31T07:40:25;2.80;;;0.50;;
53801;SDS011;39709;53.334;6.534;2023-05-31T07:42:52;5.68;;;0.90;;
53801;SDS011;39709;53.334;6.534;2023-05-31T07:45:18;3.75;;;0.80;;
53801;SDS011;39709;53.334;6.534;2023-05-31T07:47:44;5.93;;;0.80;;
53801;SDS011;39709;53.334;6.534;2023-05-31T07:50:09;7.00;;;0.98;;
53801;SDS011;39709;53.334;6.534;2023-05-31T07:52:35;5.70;;;0.80;;
53801;SDS011;39709;53.334;6.534;2023-05-31T07:55:01;5.83;;;0.80;;
53801;SDS011;39709;53.334;6.534;2023-05-31T07:57:28;4.88;;;0.80;;
53801;SDS011;39709;53.334;6.534;2023-05-31T07:59:54;7.88;;;1.27;;
53801;SDS011;39709;53.334;6.534;2023-05-31T08:02:20;9.50;;;1.53;;
53801;SDS011;39709;53.334;6.534;2023-05-31T08:04:46;7.90;;;1.50;;
53801;SDS011;39709;53.334;6.534;2023-05-31T08:07:11;7.30;;;1.40;;
53801;SDS011;39709;53.334;6.534;2023-05-31T08:09:37;9.02;;;1.38;;
53801;SDS011;39709;53.334;6.534;2023-05-31T08:12:03;6.78;;;1.00;;
53801;SDS011;39709;53.334;6.534;2023-05-31T08:14:29;7.50;;;1.77;;
53801;SDS011;39709;53.334;6.534;2023-05-31T08:16:55;7.40;;;1.27;;
53801;SDS011;39709;53.334;6.534;2023-05-31T08:19:20;8.53;;;1.80;;
53801;SDS011;39709;53.334;6.534;2023-05-31T08:21:46;10.15;;;1.90;;
53801;SDS011;39709;53.334;6.534;2023-05-31T08:24:12;11.23;;;2.10;;
53801;SDS011;39709;53.334;6.534;2023-05-31T08:26:38;9.15;;;1.90;;
53801;SDS011;39709;53.334;6.534;2023-05-31T08:29:03;6.97;;;1.50;;
53801;SDS011;39709;53.334;6.534;2023-05-31T08:31:29;8.48;;;1.65;;
53801;SDS011;39709;53.334;6.534;2023-05-31T08:33:56;7.40;;;1.40;;
53801;SDS011;39709;53.334;6.534;2023-05-31T08:36:23;8.80;;;2.03;;
53801;SDS011;39709;53.334;6.534;2023-05-31T08:38:50;7.03;;;2.00;;
53801;SDS011;39709;53.334;6.534;2023-05-31T08:41:17;9.10;;;2.40;;
53801;SDS011;39709;53.334;6.534;2023-05-31T08:43:44;10.47;;;2.47;;
53801;SDS011;39709;53.334;6.534;2023-05-31T08:46:11;10.75;;;3.03;;
53801;SDS011;39709;53.334;6.534;2023-05-31T08:51:13;11.82;;;2.33;;
53801;SDS011;39709;53.334;6.534;2023-05-31T08:53:40;12.77;;;1.85;;
53801;SDS011;39709;53.334;6.534;2023-05-31T08:56:07;10.53;;;2.43;;
53801;SDS011;39709;53.334;6.534;2023-05-31T08:58:34;10.65;;;2.30;;
53801;SDS011;39709;53.334;6.534;2023-05-31T09:01:04;11.90;;;2.75;;
53801;SDS011;39709;53.334;6.534;2023-05-31T09:03:31;9.07;;;2.85;;
53801;SDS011;39709;53.334;6.534;2023-05-31T09:05:57;10.10;;;2.03;;
53801;SDS011;39709;53.334;6.534;2023-05-31T09:08:23;8.53;;;2.83;;
53801;SDS011;39709;53.334;6.534;2023-05-31T09:10:49;7.35;;;2.30;;
53801;SDS011;39709;53.334;6.534;2023-05-31T09:13:15;10.53;;;3.30;;
53801;SDS011;39709;53.334;6.534;2023-05-31T09:15:41;9.60;;;2.60;;
53801;SDS011;39709;53.334;6.534;2023-05-31T09:18:12;7.53;;;1.95;;
53801;SDS011;39709;53.334;6.534;2023-05-31T09:20:40;10.65;;;2.38;;
53801;SDS011;39709;53.334;6.534;2023-05-31T09:23:07;10.63;;;2.53;;
53801;SDS011;39709;53.334;6.534;2023-05-31T09:26:07;6.03;;;1.70;;
53801;SDS011;39709;53.334;6.534;2023-05-31T09:28:30;10.02;;;2.55;;
53801;SDS011;39709;53.334;6.534;2023-05-31T09:31:06;8.80;;;2.57;;
53801;SDS011;39709;53.334;6.534;2023-05-31T09:33:51;8.98;;;3.25;;
53801;SDS011;39709;53.334;6.534;2023-05-31T09:36:23;11.18;;;3.75;;
53801;SDS011;39709;53.334;6.534;2023-05-31T09:38:51;13.93;;;3.42;;
53801;SDS011;39709;53.334;6.534;2023-05-31T09:41:29;9.35;;;2.80;;
53801;SDS011;39709;53.334;6.534;2023-05-31T09:43:56;7.37;;;2.93;;
53801;SDS011;39709;53.334;6.534;2023-05-31T09:46:23;8.18;;;2.53;;
53801;SDS011;39709;53.334;6.534;2023-05-31T09:51:25;8.40;;;3.10;;
53801;SDS011;39709;53.334;6.534;2023-05-31T09:53:52;9.60;;;3.67;;
53801;SDS011;39709;53.334;6.534;2023-05-31T09:56:20;8.20;;;3.40;;
53801;SDS011;39709;53.334;6.534;2023-05-31T09:58:48;9.50;;;4.53;;
53801;SDS011;39709;53.334;6.534;2023-05-31T10:01:16;12.50;;;3.05;;
53801;SDS011;39709;53.334;6.534;2023-05-31T10:03:45;6.07;;;1.65;;
53801;SDS011;39709;53.334;6.534;2023-05-31T10:06:14;7.78;;;2.50;;
53801;SDS011;39709;53.334;6.534;2023-05-31T10:08:41;6.73;;;2.00;;
53801;SDS011;39709;53.334;6.534;2023-05-31T10:11:08;8.35;;;2.47;;
53801;SDS011;39709;53.334;6.534;2023-05-31T10:13:38;7.18;;;1.50;;
53801;SDS011;39709;53.334;6.534;2023-05-31T10:16:08;6.78;;;2.10;;
53801;SDS011;39709;53.334;6.534;2023-05-31T10:18:40;8.57;;;2.05;;
53801;SDS011;39709;53.334;6.534;2023-05-31T10:21:17;7.23;;;2.73;;
53801;SDS011;39709;53.334;6.534;2023-05-31T10:26:31;6.53;;;1.42;;
53801;SDS011;39709;53.334;6.534;2023-05-31T10:29:16;4.15;;;1.30;;
53801;SDS011;39709;53.334;6.534;2023-05-31T10:31:49;7.38;;;2.00;;
53801;SDS011;39709;53.334;6.534;2023-05-31T10:34:20;13.50;;;2.87;;
53801;SDS011;39709;53.334;6.534;2023-05-31T10:36:54;5.80;;;1.92;;
53801;SDS011;39709;53.334;6.534;2023-05-31T10:39:25;8.50;;;2.38;;
53801;SDS011;39709;53.334;6.534;2023-05-31T10:44:56;9.18;;;2.20;;
53801;SDS011;39709;53.334;6.534;2023-05-31T10:47:39;5.40;;;1.30;;
53801;SDS011;39709;53.334;6.534;2023-05-31T10:50:18;8.05;;;1.98;;
53801;SDS011;39709;53.334;6.534;2023-05-31T10:52:48;7.65;;;1.83;;
53801;SDS011;39709;53.334;6.534;2023-05-31T10:55:23;3.75;;;0.85;;
53801;SDS011;39709;53.334;6.534;2023-05-31T10:57:50;7.00;;;1.50;;
53801;SDS011;39709;53.334;6.534;2023-05-31T11:00:21;9.80;;;1.90;;
53801;SDS011;39709;53.334;6.534;2023-05-31T11:02:48;8.07;;;1.70;;
53801;SDS011;39709;53.334;6.534;2023-05-31T11:05:23;8.70;;;2.55;;
53801;SDS011;39709;53.334;6.534;2023-05-31T11:07:52;10.52;;;2.53;;
53801;SDS011;39709;53.334;6.534;2023-05-31T11:10:28;8.60;;;2.10;;
53801;SDS011;39709;53.334;6.534;2023-05-31T11:12:56;8.90;;;2.20;;
53801;SDS011;39709;53.334;6.534;2023-05-31T11:15:39;8.82;;;2.38;;
53801;SDS011;39709;53.334;6.534;2023-05-31T11:18:09;6.22;;;1.15;;
53801;SDS011;39709;53.334;6.534;2023-05-31T11:20:39;6.28;;;1.50;;
53801;SDS011;39709;53.334;6.534;2023-05-31T11:26:06;8.68;;;2.97;;
53801;SDS011;39709;53.334;6.534;2023-05-31T11:28:49;8.00;;;2.70;;
53801;SDS011;39709;53.334;6.534;2023-05-31T11:34:31;7.63;;;2.42;;
53801;SDS011;39709;53.334;6.534;2023-05-31T11:36:59;9.33;;;2.27;;
53801;SDS011;39709;53.334;6.534;2023-05-31T11:39:26;9.48;;;2.20;;
53801;SDS011;39709;53.334;6.534;2023-05-31T11:41:53;7.05;;;1.70;;
53801;SDS011;39709;53.334;6.534;2023-05-31T11:44:20;8.05;;;2.30;;
53801;SDS011;39709;53.334;6.534;2023-05-31T11:46:54;9.90;;;2.63;;
53801;SDS011;39709;53.334;6.534;2023-05-31T11:49:25;7.10;;;2.78;;
53801;SDS011;39709;53.334;6.534;2023-05-31T11:51:53;7.35;;;2.35;;
53801;SDS011;39709;53.334;6.534;2023-05-31T11:54:24;8.10;;;1.80;;
53801;SDS011;39709;53.334;6.534;2023-05-31T11:56:54;13.02;;;2.55;;
53801;SDS011;39709;53.334;6.534;2023-05-31T11:59:22;10.33;;;2.87;;
53801;SDS011;39709;53.334;6.534;2023-05-31T12:01:49;9.02;;;2.50;;
53801;SDS011;39709;53.334;6.534;2023-05-31T12:04:15;4.80;;;1.35;;
53801;SDS011;39709;53.334;6.534;2023-05-31T12:06:41;10.80;;;3.43;;
53801;SDS011;39709;53.334;6.534;2023-05-31T12:09:10;9.88;;;2.97;;
53801;SDS011;39709;53.334;6.534;2023-05-31T12:11:36;10.35;;;3.63;;
53801;SDS011;39709;53.334;6.534;2023-05-31T12:14:02;6.97;;;1.90;;
53801;SDS011;39709;53.334;6.534;2023-05-31T12:16:28;10.93;;;2.67;;
53801;SDS011;39709;53.334;6.534;2023-05-31T12:18:54;9.83;;;3.07;;
53801;SDS011;39709;53.334;6.534;2023-05-31T12:21:19;9.27;;;2.90;;
53801;SDS011;39709;53.334;6.534;2023-05-31T12:23:56;9.15;;;2.97;;
53801;SDS011;39709;53.334;6.534;2023-05-31T12:26:23;9.88;;;2.63;;
53801;SDS011;39709;53.334;6.534;2023-05-31T12:28:51;8.25;;;2.97;;
53801;SDS011;39709;53.334;6.534;2023-05-31T12:31:21;9.03;;;3.00;;
53801;SDS011;39709;53.334;6.534;2023-05-31T12:34:05;8.23;;;2.60;;
53801;SDS011;39709;53.334;6.534;2023-05-31T12:36:41;9.00;;;2.80;;
53801;SDS011;39709;53.334;6.534;2023-05-31T12:39:12;10.82;;;2.83;;
53801;SDS011;39709;53.334;6.534;2023-05-31T12:41:46;8.57;;;2.27;;
53801;SDS011;39709;53.334;6.534;2023-05-31T12:44:13;6.95;;;2.50;;
53801;SDS011;39709;53.334;6.534;2023-05-31T12:46:45;3.15;;;0.82;;
53801;SDS011;39709;53.334;6.534;2023-05-31T12:49:25;9.05;;;1.95;;
53801;SDS011;39709;53.334;6.534;2023-05-31T12:51:59;6.40;;;2.10;;
53801;SDS011;39709;53.334;6.534;2023-05-31T12:54:29;10.70;;;3.10;;
53801;SDS011;39709;53.334;6.534;2023-05-31T12:56:56;10.02;;;2.75;;
53801;SDS011;39709;53.334;6.534;2023-05-31T12:59:23;6.95;;;2.30;;
53801;SDS011;39709;53.334;6.534;2023-05-31T13:01:50;11.30;;;2.30;;
53801;SDS011;39709;53.334;6.534;2023-05-31T13:04:16;7.22;;;2.30;;
53801;SDS011;39709;53.334;6.534;2023-05-31T13:06:42;9.60;;;2.23;;
53801;SDS011;39709;53.334;6.534;2023-05-31T13:09:08;12.35;;;2.10;;
53801;SDS011;39709;53.334;6.534;2023-05-31T13:11:34;5.90;;;2.10;;
53801;SDS011;39709;53.334;6.534;2023-05-31T13:14:04;6.97;;;2.00;;
53801;SDS011;39709;53.334;6.534;2023-05-31T13:16:31;7.63;;;2.10;;
53801;SDS011;39709;53.334;6.534;2023-05-31T13:18:58;11.05;;;2.08;;
53801;SDS011;39709;53.334;6.534;2023-05-31T13:21:25;11.38;;;2.50;;
53801;SDS011;39709;53.334;6.534;2023-05-31T13:23:51;7.73;;;1.70;;
53801;SDS011;39709;53.334;6.534;2023-05-31T13:26:17;8.00;;;2.10;;
53801;SDS011;39709;53.334;6.534;2023-05-31T13:28:43;7.18;;;1.90;;
53801;SDS011;39709;53.334;6.534;2023-05-31T13:31:09;6.80;;;2.28;;
53801;SDS011;39709;53.334;6.534;2023-05-31T13:33:34;6.60;;;2.13;;
53801;SDS011;39709;53.334;6.534;2023-05-31T13:36:00;7.18;;;1.52;;
53801;SDS011;39709;53.334;6.534;2023-05-31T13:38:26;5.73;;;1.40;;
53801;SDS011;39709;53.334;6.534;2023-05-31T13:40:52;8.20;;;1.90;;
53801;SDS011;39709;53.334;6.534;2023-05-31T13:43:18;7.33;;;2.30;;
53801;SDS011;39709;53.334;6.534;2023-05-31T13:45:47;8.93;;;2.53;;
53801;SDS011;39709;53.334;6.534;2023-05-31T13:48:13;6.55;;;1.67;;
53801;SDS011;39709;53.334;6.534;2023-05-31T13:50:39;7.93;;;2.25;;
53801;SDS011;39709;53.334;6.534;2023-05-31T13:53:05;6.22;;;1.52;;
53801;SDS011;39709;53.334;6.534;2023-05-31T13:55:31;8.70;;;2.30;;
53801;SDS011;39709;53.334;6.534;2023-05-31T13:57:57;10.60;;;2.10;;
53801;SDS011;39709;53.334;6.534;2023-05-31T14:00:23;6.70;;;1.83;;
53801;SDS011;39709;53.334;6.534;2023-05-31T14:02:50;6.55;;;1.77;;
53801;SDS011;39709;53.334;6.534;2023-05-31T14:05:17;6.68;;;2.17;;
53801;SDS011;39709;53.334;6.534;2023-05-31T14:07:43;8.37;;;1.70;;
53801;SDS011;39709;53.334;6.534;2023-05-31T14:10:09;10.18;;;1.80;;
53801;SDS011;39709;53.334;6.534;2023-05-31T14:12:35;6.75;;;2.15;;
53801;SDS011;39709;53.334;6.534;2023-05-31T14:15:01;6.40;;;1.43;;
53801;SDS011;39709;53.334;6.534;2023-05-31T14:17:27;9.35;;;1.75;;
53801;SDS011;39709;53.334;6.534;2023-05-31T14:19:53;5.07;;;1.70;;
53801;SDS011;39709;53.334;6.534;2023-05-31T14:22:19;5.40;;;1.70;;
53801;SDS011;39709;53.334;6.534;2023-05-31T14:24:44;6.30;;;2.05;;
53801;SDS011;39709;53.334;6.534;2023-05-31T14:27:10;5.07;;;1.83;;
53801;SDS011;39709;53.334;6.534;2023-05-31T14:29:36;7.57;;;2.80;;
53801;SDS011;39709;53.334;6.534;2023-05-31T14:32:01;6.27;;;1.63;;
53801;SDS011;39709;53.334;6.534;2023-05-31T14:34:27;6.65;;;1.80;;
53801;SDS011;39709;53.334;6.534;2023-05-31T14:36:53;8.27;;;2.37;;
53801;SDS011;39709;53.334;6.534;2023-05-31T14:39:18;7.25;;;2.75;;
53801;SDS011;39709;53.334;6.534;2023-05-31T14:41:45;7.30;;;2.20;;
53801;SDS011;39709;53.334;6.534;2023-05-31T14:44:11;5.30;;;1.92;;
53801;SDS011;39709;53.334;6.534;2023-05-31T14:46:36;4.33;;;1.50;;
53801;SDS011;39709;53.334;6.534;2023-05-31T14:49:02;7.28;;;1.92;;
53801;SDS011;39709;53.334;6.534;2023-05-31T14:51:28;6.27;;;2.00;;
53801;SDS011;39709;53.334;6.534;2023-05-31T14:53:55;6.55;;;1.80;;
53801;SDS011;39709;53.334;6.534;2023-05-31T14:56:21;5.67;;;1.67;;
53801;SDS011;39709;53.334;6.534;2023-05-31T14:58:47;9.53;;;2.70;;
53801;SDS011;39709;53.334;6.534;2023-05-31T15:01:12;8.65;;;2.17;;